sensor_id;sensor_type;location;lat;lon;timestamp;P1;durP1;ratioP1;P2;durP2;ratioP2
53835;SDS011;39737;43.334;21.936;2023-06-14T00:01:43;1.85;;;1.60;;
53835;SDS011;39737;43.334;21.936;2023-06-14T00:04:32;1.98;;;1.60;;
53835;SDS011;39737;43.334;21.936;2023-06-14T00:07:18;2.55;;;1.70;;
53835;SDS011;39737;43.334;21.936;2023-06-14T00:10:04;1.88;;;1.42;;
53835;SDS011;39737;43.334;21.936;2023-06-14T00:12:51;7.72;;;1.95;;
53835;SDS011;39737;43.334;21.936;2023-06-14T00:15:37;4.22;;;1.50;;
53835;SDS011;39737;43.334;21.936;2023-06-14T00:18:23;3.33;;;1.65;;
53835;SDS011;39737;43.334;21.936;2023-06-14T00:21:11;4.18;;;1.85;;
53835;SDS011;39737;43.334;21.936;2023-06-14T00:23:58;2.55;;;1.70;;
53835;SDS011;39737;43.334;21.936;2023-06-14T00:26:45;4.70;;;1.63;;
53835;SDS011;39737;43.334;21.936;2023-06-14T00:29:31;5.22;;;1.98;;
53835;SDS011;39737;43.334;21.936;2023-06-14T00:32:18;2.63;;;1.70;;
53835;SDS011;39737;43.334;21.936;2023-06-14T00:35:04;2.38;;;1.55;;
53835;SDS011;39737;43.334;21.936;2023-06-14T00:37:51;3.17;;;1.90;;
53835;SDS011;39737;43.334;21.936;2023-06-14T00:40:37;3.50;;;1.85;;
53835;SDS011;39737;43.334;21.936;2023-06-14T00:43:24;12.90;;;2.35;;
53835;SDS011;39737;43.334;21.936;2023-06-14T00:46:11;2.47;;;1.55;;
53835;SDS011;39737;43.334;21.936;2023-06-14T00:48:58;1.58;;;1.25;;
53835;SDS011;39737;43.334;21.936;2023-06-14T00:51:45;2.08;;;1.45;;
53835;SDS011;39737;43.334;21.936;2023-06-14T00:54:50;2.20;;;1.25;;
53835;SDS011;39737;43.334;21.936;2023-06-14T00:57:36;1.92;;;1.38;;
53835;SDS011;39737;43.334;21.936;2023-06-14T01:00:25;2.95;;;1.20;;
53835;SDS011;39737;43.334;21.936;2023-06-14T01:03:22;2.72;;;1.33;;
53835;SDS011;39737;43.334;21.936;2023-06-14T01:11:50;11.48;;;2.08;;
53835;SDS011;39737;43.334;21.936;2023-06-14T01:14:40;5.05;;;1.45;;
53835;SDS011;39737;43.334;21.936;2023-06-14T01:17:27;3.80;;;1.48;;
53835;SDS011;39737;43.334;21.936;2023-06-14T01:20:21;3.00;;;1.58;;
53835;SDS011;39737;43.334;21.936;2023-06-14T01:23:08;2.38;;;1.95;;
53835;SDS011;39737;43.334;21.936;2023-06-14T01:25:54;2.50;;;1.95;;
53835;SDS011;39737;43.334;21.936;2023-06-14T01:28:41;1.25;;;1.15;;
53835;SDS011;39737;43.334;21.936;2023-06-14T01:31:28;1.80;;;1.50;;
53835;SDS011;39737;43.334;21.936;2023-06-14T01:34:15;2.50;;;1.60;;
53835;SDS011;39737;43.334;21.936;2023-06-14T01:37:01;2.38;;;1.60;;
53835;SDS011;39737;43.334;21.936;2023-06-14T01:39:49;5.03;;;1.40;;
53835;SDS011;39737;43.334;21.936;2023-06-14T01:42:37;1.52;;;1.30;;
53835;SDS011;39737;43.334;21.936;2023-06-14T01:45:25;6.32;;;1.60;;
53835;SDS011;39737;43.334;21.936;2023-06-14T01:48:11;1.88;;;1.38;;
53835;SDS011;39737;43.334;21.936;2023-06-14T01:50:58;3.50;;;1.60;;
53835;SDS011;39737;43.334;21.936;2023-06-14T01:53:44;3.17;;;1.40;;
53835;SDS011;39737;43.334;21.936;2023-06-14T01:56:31;7.20;;;2.15;;
53835;SDS011;39737;43.334;21.936;2023-06-14T01:59:18;2.85;;;1.95;;
53835;SDS011;39737;43.334;21.936;2023-06-14T02:02:04;2.75;;;1.75;;
53835;SDS011;39737;43.334;21.936;2023-06-14T02:04:51;11.30;;;2.22;;
53835;SDS011;39737;43.334;21.936;2023-06-14T02:07:39;10.48;;;2.20;;
53835;SDS011;39737;43.334;21.936;2023-06-14T02:10:25;2.13;;;1.67;;
53835;SDS011;39737;43.334;21.936;2023-06-14T02:13:13;3.28;;;1.80;;
53835;SDS011;39737;43.334;21.936;2023-06-14T02:15:59;3.30;;;1.67;;
53835;SDS011;39737;43.334;21.936;2023-06-14T02:18:46;4.93;;;1.60;;
53835;SDS011;39737;43.334;21.936;2023-06-14T02:21:51;3.03;;;1.77;;
53835;SDS011;39737;43.334;21.936;2023-06-14T02:24:37;7.00;;;1.98;;
53835;SDS011;39737;43.334;21.936;2023-06-14T02:27:26;3.83;;;2.35;;
53835;SDS011;39737;43.334;21.936;2023-06-14T02:30:12;6.03;;;1.30;;
53835;SDS011;39737;43.334;21.936;2023-06-14T02:32:59;1.85;;;1.38;;
53835;SDS011;39737;43.334;21.936;2023-06-14T02:35:46;3.78;;;1.88;;
53835;SDS011;39737;43.334;21.936;2023-06-14T02:38:33;2.90;;;1.55;;
53835;SDS011;39737;43.334;21.936;2023-06-14T02:41:19;2.03;;;1.42;;
53835;SDS011;39737;43.334;21.936;2023-06-14T02:44:06;8.55;;;2.28;;
53835;SDS011;39737;43.334;21.936;2023-06-14T02:46:55;4.50;;;1.75;;
53835;SDS011;39737;43.334;21.936;2023-06-14T02:49:41;3.25;;;1.58;;
53835;SDS011;39737;43.334;21.936;2023-06-14T02:52:28;4.75;;;1.90;;
53835;SDS011;39737;43.334;21.936;2023-06-14T02:55:14;2.60;;;1.88;;
53835;SDS011;39737;43.334;21.936;2023-06-14T02:58:00;4.10;;;1.30;;
53835;SDS011;39737;43.334;21.936;2023-06-14T03:00:46;4.88;;;1.65;;
53835;SDS011;39737;43.334;21.936;2023-06-14T03:03:33;3.75;;;2.35;;
53835;SDS011;39737;43.334;21.936;2023-06-14T03:06:19;3.30;;;1.90;;
53835;SDS011;39737;43.334;21.936;2023-06-14T03:09:09;6.78;;;1.70;;
53835;SDS011;39737;43.334;21.936;2023-06-14T03:11:57;2.70;;;1.60;;
53835;SDS011;39737;43.334;21.936;2023-06-14T03:14:44;5.10;;;1.77;;
53835;SDS011;39737;43.334;21.936;2023-06-14T03:17:33;2.30;;;1.67;;
53835;SDS011;39737;43.334;21.936;2023-06-14T03:20:22;10.00;;;2.65;;
53835;SDS011;39737;43.334;21.936;2023-06-14T03:23:12;8.25;;;1.63;;
53835;SDS011;39737;43.334;21.936;2023-06-14T03:25:59;7.35;;;1.80;;
53835;SDS011;39737;43.334;21.936;2023-06-14T03:28:45;4.13;;;2.67;;
53835;SDS011;39737;43.334;21.936;2023-06-14T03:31:32;4.72;;;3.20;;
53835;SDS011;39737;43.334;21.936;2023-06-14T03:34:21;6.57;;;4.03;;
53835;SDS011;39737;43.334;21.936;2023-06-14T03:37:07;9.13;;;2.42;;
53835;SDS011;39737;43.334;21.936;2023-06-14T03:39:54;5.50;;;2.30;;
53835;SDS011;39737;43.334;21.936;2023-06-14T03:42:42;13.73;;;4.60;;
53835;SDS011;39737;43.334;21.936;2023-06-14T03:45:30;11.52;;;5.85;;
53835;SDS011;39737;43.334;21.936;2023-06-14T03:48:17;7.00;;;2.80;;
53835;SDS011;39737;43.334;21.936;2023-06-14T03:51:04;7.57;;;2.20;;
53835;SDS011;39737;43.334;21.936;2023-06-14T03:53:51;6.10;;;3.60;;
53835;SDS011;39737;43.334;21.936;2023-06-14T03:56:57;3.70;;;2.28;;
53835;SDS011;39737;43.334;21.936;2023-06-14T03:59:43;3.90;;;2.38;;
53835;SDS011;39737;43.334;21.936;2023-06-14T04:02:30;4.05;;;2.42;;
53835;SDS011;39737;43.334;21.936;2023-06-14T04:05:17;2.60;;;1.50;;
53835;SDS011;39737;43.334;21.936;2023-06-14T04:08:08;5.85;;;2.20;;
53835;SDS011;39737;43.334;21.936;2023-06-14T04:10:55;7.53;;;2.20;;
53835;SDS011;39737;43.334;21.936;2023-06-14T04:13:41;3.63;;;2.10;;
53835;SDS011;39737;43.334;21.936;2023-06-14T04:16:28;2.35;;;1.80;;
53835;SDS011;39737;43.334;21.936;2023-06-14T04:19:17;3.00;;;1.60;;
53835;SDS011;39737;43.334;21.936;2023-06-14T04:22:04;3.78;;;1.42;;
53835;SDS011;39737;43.334;21.936;2023-06-14T04:24:54;2.70;;;2.00;;
53835;SDS011;39737;43.334;21.936;2023-06-14T04:27:51;3.08;;;1.98;;
53835;SDS011;39737;43.334;21.936;2023-06-14T04:30:40;3.20;;;1.70;;
53835;SDS011;39737;43.334;21.936;2023-06-14T04:33:26;4.28;;;1.75;;
53835;SDS011;39737;43.334;21.936;2023-06-14T04:36:13;2.00;;;1.77;;
53835;SDS011;39737;43.334;21.936;2023-06-14T04:41:52;1.95;;;1.55;;
53835;SDS011;39737;43.334;21.936;2023-06-14T04:44:43;4.68;;;2.20;;
53835;SDS011;39737;43.334;21.936;2023-06-14T04:47:31;5.20;;;1.92;;
53835;SDS011;39737;43.334;21.936;2023-06-14T04:50:18;2.70;;;1.92;;
53835;SDS011;39737;43.334;21.936;2023-06-14T04:53:06;4.05;;;1.75;;
53835;SDS011;39737;43.334;21.936;2023-06-14T04:55:53;5.57;;;2.38;;
53835;SDS011;39737;43.334;21.936;2023-06-14T04:58:39;2.33;;;1.67;;
53835;SDS011;39737;43.334;21.936;2023-06-14T05:01:26;5.15;;;2.83;;
53835;SDS011;39737;43.334;21.936;2023-06-14T05:04:13;3.60;;;2.35;;
53835;SDS011;39737;43.334;21.936;2023-06-14T05:06:59;6.80;;;2.30;;
53835;SDS011;39737;43.334;21.936;2023-06-14T05:09:47;8.20;;;1.98;;
53835;SDS011;39737;43.334;21.936;2023-06-14T05:12:33;2.45;;;1.70;;
53835;SDS011;39737;43.334;21.936;2023-06-14T05:15:21;2.38;;;1.75;;
53835;SDS011;39737;43.334;21.936;2023-06-14T05:18:11;3.85;;;1.75;;
53835;SDS011;39737;43.334;21.936;2023-06-14T05:20:59;2.53;;;1.42;;
53835;SDS011;39737;43.334;21.936;2023-06-14T05:23:46;3.65;;;1.85;;
53835;SDS011;39737;43.334;21.936;2023-06-14T05:26:32;2.97;;;1.80;;
53835;SDS011;39737;43.334;21.936;2023-06-14T05:29:19;3.08;;;1.30;;
53835;SDS011;39737;43.334;21.936;2023-06-14T05:32:06;7.25;;;1.63;;
53835;SDS011;39737;43.334;21.936;2023-06-14T05:34:52;2.95;;;1.73;;
53835;SDS011;39737;43.334;21.936;2023-06-14T05:37:39;3.30;;;1.88;;
53835;SDS011;39737;43.334;21.936;2023-06-14T05:40:25;2.78;;;1.70;;
53835;SDS011;39737;43.334;21.936;2023-06-14T05:43:15;2.08;;;1.50;;
53835;SDS011;39737;43.334;21.936;2023-06-14T05:46:01;3.25;;;1.85;;
53835;SDS011;39737;43.334;21.936;2023-06-14T05:48:48;1.83;;;1.35;;
53835;SDS011;39737;43.334;21.936;2023-06-14T05:51:34;1.95;;;1.42;;
53835;SDS011;39737;43.334;21.936;2023-06-14T05:54:21;2.35;;;1.58;;
53835;SDS011;39737;43.334;21.936;2023-06-14T05:57:07;2.83;;;1.60;;
53835;SDS011;39737;43.334;21.936;2023-06-14T05:59:53;2.08;;;1.40;;
53835;SDS011;39737;43.334;21.936;2023-06-14T06:02:41;2.10;;;1.17;;
53835;SDS011;39737;43.334;21.936;2023-06-14T06:05:29;2.10;;;1.25;;
53835;SDS011;39737;43.334;21.936;2023-06-14T06:08:15;2.10;;;1.10;;
53835;SDS011;39737;43.334;21.936;2023-06-14T06:11:02;2.15;;;1.88;;
53835;SDS011;39737;43.334;21.936;2023-06-14T06:13:49;7.13;;;1.60;;
53835;SDS011;39737;43.334;21.936;2023-06-14T06:16:35;2.38;;;1.40;;
53835;SDS011;39737;43.334;21.936;2023-06-14T06:19:21;2.08;;;1.42;;
53835;SDS011;39737;43.334;21.936;2023-06-14T06:22:10;2.40;;;1.52;;
53835;SDS011;39737;43.334;21.936;2023-06-14T06:24:57;2.28;;;1.52;;
53835;SDS011;39737;43.334;21.936;2023-06-14T06:27:43;1.92;;;1.52;;
53835;SDS011;39737;43.334;21.936;2023-06-14T06:30:29;2.45;;;1.23;;
53835;SDS011;39737;43.334;21.936;2023-06-14T06:33:15;1.95;;;1.65;;
53835;SDS011;39737;43.334;21.936;2023-06-14T06:36:02;8.43;;;2.17;;
53835;SDS011;39737;43.334;21.936;2023-06-14T06:38:48;2.15;;;1.42;;
53835;SDS011;39737;43.334;21.936;2023-06-14T06:41:34;1.42;;;1.20;;
53835;SDS011;39737;43.334;21.936;2023-06-14T06:44:23;1.90;;;1.13;;
53835;SDS011;39737;43.334;21.936;2023-06-14T06:47:09;2.90;;;1.30;;
53835;SDS011;39737;43.334;21.936;2023-06-14T06:49:57;1.75;;;1.20;;
53835;SDS011;39737;43.334;21.936;2023-06-14T06:52:43;2.97;;;1.63;;
53835;SDS011;39737;43.334;21.936;2023-06-14T06:55:31;2.45;;;1.63;;
53835;SDS011;39737;43.334;21.936;2023-06-14T06:58:17;2.97;;;1.42;;
53835;SDS011;39737;43.334;21.936;2023-06-14T07:01:04;2.47;;;1.45;;
53835;SDS011;39737;43.334;21.936;2023-06-14T07:03:50;4.65;;;1.77;;
53835;SDS011;39737;43.334;21.936;2023-06-14T07:06:37;2.88;;;1.95;;
53835;SDS011;39737;43.334;21.936;2023-06-14T07:09:23;3.40;;;1.80;;
53835;SDS011;39737;43.334;21.936;2023-06-14T07:12:10;4.57;;;1.75;;
53835;SDS011;39737;43.334;21.936;2023-06-14T07:14:57;2.30;;;1.60;;
53835;SDS011;39737;43.334;21.936;2023-06-14T07:17:44;2.25;;;1.60;;
53835;SDS011;39737;43.334;21.936;2023-06-14T07:20:31;2.90;;;1.77;;
53835;SDS011;39737;43.334;21.936;2023-06-14T07:23:19;2.10;;;1.30;;
53835;SDS011;39737;43.334;21.936;2023-06-14T07:26:05;3.53;;;1.60;;
53835;SDS011;39737;43.334;21.936;2023-06-14T07:28:52;2.30;;;1.58;;
53835;SDS011;39737;43.334;21.936;2023-06-14T07:31:38;4.15;;;1.90;;
53835;SDS011;39737;43.334;21.936;2023-06-14T07:34:25;2.78;;;1.85;;
53835;SDS011;39737;43.334;21.936;2023-06-14T07:37:12;3.60;;;2.30;;
53835;SDS011;39737;43.334;21.936;2023-06-14T07:39:58;8.80;;;2.40;;
53835;SDS011;39737;43.334;21.936;2023-06-14T07:42:44;4.05;;;1.95;;
53835;SDS011;39737;43.334;21.936;2023-06-14T07:45:31;7.50;;;2.33;;
53835;SDS011;39737;43.334;21.936;2023-06-14T07:48:18;4.90;;;2.33;;
53835;SDS011;39737;43.334;21.936;2023-06-14T07:51:06;2.65;;;1.83;;
53835;SDS011;39737;43.334;21.936;2023-06-14T07:53:52;3.75;;;2.17;;
53835;SDS011;39737;43.334;21.936;2023-06-14T07:56:39;3.70;;;1.70;;
53835;SDS011;39737;43.334;21.936;2023-06-14T07:59:29;6.00;;;2.97;;
53835;SDS011;39737;43.334;21.936;2023-06-14T08:02:15;6.38;;;2.60;;
53835;SDS011;39737;43.334;21.936;2023-06-14T08:05:02;4.25;;;2.70;;
53835;SDS011;39737;43.334;21.936;2023-06-14T08:07:48;5.82;;;3.17;;
53835;SDS011;39737;43.334;21.936;2023-06-14T08:10:34;4.30;;;1.73;;
53835;SDS011;39737;43.334;21.936;2023-06-14T08:13:48;2.72;;;1.90;;
53835;SDS011;39737;43.334;21.936;2023-06-14T08:16:36;2.95;;;2.05;;
53835;SDS011;39737;43.334;21.936;2023-06-14T08:19:23;5.18;;;2.47;;
53835;SDS011;39737;43.334;21.936;2023-06-14T08:22:09;4.15;;;2.20;;
53835;SDS011;39737;43.334;21.936;2023-06-14T08:24:57;5.80;;;2.15;;
53835;SDS011;39737;43.334;21.936;2023-06-14T08:27:44;3.38;;;2.08;;
53835;SDS011;39737;43.334;21.936;2023-06-14T08:30:30;3.78;;;2.22;;
53835;SDS011;39737;43.334;21.936;2023-06-14T08:33:30;3.90;;;2.28;;
53835;SDS011;39737;43.334;21.936;2023-06-14T08:36:20;1.88;;;1.63;;
53835;SDS011;39737;43.334;21.936;2023-06-14T08:39:06;2.85;;;1.70;;
53835;SDS011;39737;43.334;21.936;2023-06-14T08:41:57;3.25;;;1.98;;
53835;SDS011;39737;43.334;21.936;2023-06-14T08:44:48;1.92;;;1.52;;
53835;SDS011;39737;43.334;21.936;2023-06-14T08:47:36;4.07;;;1.80;;
53835;SDS011;39737;43.334;21.936;2023-06-14T08:50:27;3.38;;;1.80;;
53835;SDS011;39737;43.334;21.936;2023-06-14T08:53:18;7.45;;;2.13;;
53835;SDS011;39737;43.334;21.936;2023-06-14T08:56:06;2.78;;;1.67;;
53835;SDS011;39737;43.334;21.936;2023-06-14T08:59:03;2.53;;;1.60;;
53835;SDS011;39737;43.334;21.936;2023-06-14T09:01:50;3.50;;;1.75;;
53835;SDS011;39737;43.334;21.936;2023-06-14T09:04:56;3.22;;;1.80;;
53835;SDS011;39737;43.334;21.936;2023-06-14T09:07:45;1.90;;;1.30;;
53835;SDS011;39737;43.334;21.936;2023-06-14T09:10:35;5.10;;;2.03;;
53835;SDS011;39737;43.334;21.936;2023-06-14T09:13:24;4.68;;;1.58;;
53835;SDS011;39737;43.334;21.936;2023-06-14T09:16:10;2.70;;;1.50;;
53835;SDS011;39737;43.334;21.936;2023-06-14T09:18:57;2.03;;;1.45;;
53835;SDS011;39737;43.334;21.936;2023-06-14T09:21:47;3.72;;;2.05;;
53835;SDS011;39737;43.334;21.936;2023-06-14T09:24:33;5.22;;;1.80;;
53835;SDS011;39737;43.334;21.936;2023-06-14T09:27:22;3.28;;;1.90;;
53835;SDS011;39737;43.334;21.936;2023-06-14T09:30:09;4.82;;;1.60;;
53835;SDS011;39737;43.334;21.936;2023-06-14T09:32:55;2.38;;;1.73;;
53835;SDS011;39737;43.334;21.936;2023-06-14T09:35:46;2.42;;;1.63;;
53835;SDS011;39737;43.334;21.936;2023-06-14T09:38:33;3.78;;;1.52;;
53835;SDS011;39737;43.334;21.936;2023-06-14T09:41:20;3.67;;;2.10;;
53835;SDS011;39737;43.334;21.936;2023-06-14T09:44:15;2.65;;;1.65;;
53835;SDS011;39737;43.334;21.936;2023-06-14T09:47:06;1.92;;;1.35;;
53835;SDS011;39737;43.334;21.936;2023-06-14T09:49:53;1.85;;;1.45;;
53835;SDS011;39737;43.334;21.936;2023-06-14T09:52:45;2.35;;;1.10;;
53835;SDS011;39737;43.334;21.936;2023-06-14T09:55:36;1.60;;;1.25;;
53835;SDS011;39737;43.334;21.936;2023-06-14T09:58:27;2.35;;;1.50;;
53835;SDS011;39737;43.334;21.936;2023-06-14T10:01:19;3.30;;;1.45;;
53835;SDS011;39737;43.334;21.936;2023-06-14T10:04:06;1.25;;;1.15;;
53835;SDS011;39737;43.334;21.936;2023-06-14T10:06:56;8.60;;;1.50;;
53835;SDS011;39737;43.334;21.936;2023-06-14T10:09:45;1.63;;;1.10;;
53835;SDS011;39737;43.334;21.936;2023-06-14T10:12:36;2.60;;;1.20;;
53835;SDS011;39737;43.334;21.936;2023-06-14T10:15:35;17.17;;;1.45;;
53835;SDS011;39737;43.334;21.936;2023-06-14T10:18:34;2.35;;;1.40;;
53835;SDS011;39737;43.334;21.936;2023-06-14T10:24:41;1.63;;;1.10;;
53835;SDS011;39737;43.334;21.936;2023-06-14T10:27:37;1.98;;;1.17;;
53835;SDS011;39737;43.334;21.936;2023-06-14T10:30:27;2.35;;;1.23;;
53835;SDS011;39737;43.334;21.936;2023-06-14T10:33:13;2.15;;;1.48;;
53835;SDS011;39737;43.334;21.936;2023-06-14T10:36:10;2.03;;;1.05;;
53835;SDS011;39737;43.334;21.936;2023-06-14T10:39:08;4.10;;;1.48;;
53835;SDS011;39737;43.334;21.936;2023-06-14T10:41:55;1.85;;;1.40;;
53835;SDS011;39737;43.334;21.936;2023-06-14T10:44:42;1.38;;;1.08;;
53835;SDS011;39737;43.334;21.936;2023-06-14T10:47:33;1.23;;;1.02;;
53835;SDS011;39737;43.334;21.936;2023-06-14T10:53:23;1.20;;;0.90;;
53835;SDS011;39737;43.334;21.936;2023-06-14T10:56:11;1.85;;;1.30;;
53835;SDS011;39737;43.334;21.936;2023-06-14T10:59:09;1.55;;;0.98;;
53835;SDS011;39737;43.334;21.936;2023-06-14T11:05:05;1.27;;;0.95;;
53835;SDS011;39737;43.334;21.936;2023-06-14T11:11:02;1.70;;;1.10;;
53835;SDS011;39737;43.334;21.936;2023-06-14T11:13:52;3.30;;;1.27;;
53835;SDS011;39737;43.334;21.936;2023-06-14T11:16:49;1.55;;;0.93;;
53835;SDS011;39737;43.334;21.936;2023-06-14T11:19:45;3.67;;;0.90;;
53835;SDS011;39737;43.334;21.936;2023-06-14T11:22:45;1.52;;;0.98;;
53835;SDS011;39737;43.334;21.936;2023-06-14T11:25:35;0.70;;;0.70;;
53835;SDS011;39737;43.334;21.936;2023-06-14T11:28:41;1.38;;;0.93;;
53835;SDS011;39737;43.334;21.936;2023-06-14T11:31:28;1.25;;;1.15;;
53835;SDS011;39737;43.334;21.936;2023-06-14T11:34:21;2.03;;;1.30;;
53835;SDS011;39737;43.334;21.936;2023-06-14T11:37:14;2.35;;;0.80;;
53835;SDS011;39737;43.334;21.936;2023-06-14T11:40:04;3.47;;;0.98;;
53835;SDS011;39737;43.334;21.936;2023-06-14T11:43:01;1.10;;;1.00;;
53835;SDS011;39737;43.334;21.936;2023-06-14T11:45:48;1.48;;;0.85;;
53835;SDS011;39737;43.334;21.936;2023-06-14T11:48:51;2.75;;;0.70;;
53835;SDS011;39737;43.334;21.936;2023-06-14T11:51:38;1.13;;;0.63;;
53835;SDS011;39737;43.334;21.936;2023-06-14T11:54:24;0.90;;;0.80;;
53835;SDS011;39737;43.334;21.936;2023-06-14T11:57:12;1.02;;;0.80;;
53835;SDS011;39737;43.334;21.936;2023-06-14T12:00:07;2.00;;;1.10;;
53835;SDS011;39737;43.334;21.936;2023-06-14T12:02:58;2.63;;;1.08;;
53835;SDS011;39737;43.334;21.936;2023-06-14T12:06:01;1.00;;;0.90;;
53835;SDS011;39737;43.334;21.936;2023-06-14T12:12:38;1.30;;;0.88;;
53835;SDS011;39737;43.334;21.936;2023-06-14T12:15:32;1.38;;;0.98;;
53835;SDS011;39737;43.334;21.936;2023-06-14T12:18:19;1.17;;;1.08;;
53835;SDS011;39737;43.334;21.936;2023-06-14T12:21:22;1.42;;;1.20;;
53835;SDS011;39737;43.334;21.936;2023-06-14T12:24:23;1.60;;;1.10;;
53835;SDS011;39737;43.334;21.936;2023-06-14T12:27:22;1.85;;;1.60;;
53835;SDS011;39737;43.334;21.936;2023-06-14T12:30:15;5.10;;;2.15;;
53835;SDS011;39737;43.334;21.936;2023-06-14T12:33:02;8.75;;;1.23;;
53835;SDS011;39737;43.334;21.936;2023-06-14T12:39:10;3.97;;;1.30;;
53835;SDS011;39737;43.334;21.936;2023-06-14T12:41:57;3.97;;;1.70;;
53835;SDS011;39737;43.334;21.936;2023-06-14T12:44:45;3.05;;;1.60;;
53835;SDS011;39737;43.334;21.936;2023-06-14T12:47:32;2.40;;;1.65;;
53835;SDS011;39737;43.334;21.936;2023-06-14T12:50:18;1.52;;;1.23;;
53835;SDS011;39737;43.334;21.936;2023-06-14T12:53:06;2.13;;;1.27;;
53835;SDS011;39737;43.334;21.936;2023-06-14T12:55:53;1.52;;;1.23;;
53835;SDS011;39737;43.334;21.936;2023-06-14T12:58:39;2.08;;;1.65;;
53835;SDS011;39737;43.334;21.936;2023-06-14T13:05:11;7.30;;;1.55;;
53835;SDS011;39737;43.334;21.936;2023-06-14T13:08:00;1.67;;;1.38;;
53835;SDS011;39737;43.334;21.936;2023-06-14T13:10:48;2.85;;;1.70;;
53835;SDS011;39737;43.334;21.936;2023-06-14T13:13:37;2.70;;;1.80;;
53835;SDS011;39737;43.334;21.936;2023-06-14T13:16:24;4.15;;;1.33;;
53835;SDS011;39737;43.334;21.936;2023-06-14T13:19:11;8.35;;;1.85;;
53835;SDS011;39737;43.334;21.936;2023-06-14T13:22:00;2.25;;;1.30;;
53835;SDS011;39737;43.334;21.936;2023-06-14T13:24:46;3.05;;;1.60;;
53835;SDS011;39737;43.334;21.936;2023-06-14T13:27:33;2.97;;;1.58;;
53835;SDS011;39737;43.334;21.936;2023-06-14T13:30:22;1.85;;;1.35;;
53835;SDS011;39737;43.334;21.936;2023-06-14T13:33:13;7.45;;;1.73;;
53835;SDS011;39737;43.334;21.936;2023-06-14T13:36:01;4.90;;;1.77;;
53835;SDS011;39737;43.334;21.936;2023-06-14T13:38:51;6.25;;;1.63;;
53835;SDS011;39737;43.334;21.936;2023-06-14T13:41:41;9.73;;;1.60;;
53835;SDS011;39737;43.334;21.936;2023-06-14T13:44:38;6.20;;;1.60;;
53835;SDS011;39737;43.334;21.936;2023-06-14T13:56:01;3.65;;;1.00;;
53835;SDS011;39737;43.334;21.936;2023-06-14T13:58:54;1.63;;;1.27;;
53835;SDS011;39737;43.334;21.936;2023-06-14T14:08:57;2.03;;;1.60;;
53835;SDS011;39737;43.334;21.936;2023-06-14T14:16:37;9.45;;;1.00;;
53835;SDS011;39737;43.334;21.936;2023-06-14T14:22:32;4.05;;;1.65;;
53835;SDS011;39737;43.334;21.936;2023-06-14T14:25:22;2.38;;;1.67;;
53835;SDS011;39737;43.334;21.936;2023-06-14T14:28:10;2.85;;;1.52;;
53835;SDS011;39737;43.334;21.936;2023-06-14T14:30:57;2.38;;;2.03;;
53835;SDS011;39737;43.334;21.936;2023-06-14T14:33:43;3.80;;;2.10;;
53835;SDS011;39737;43.334;21.936;2023-06-14T14:36:29;2.83;;;1.60;;
53835;SDS011;39737;43.334;21.936;2023-06-14T14:39:20;4.70;;;2.40;;
53835;SDS011;39737;43.334;21.936;2023-06-14T14:42:06;3.22;;;1.92;;
53835;SDS011;39737;43.334;21.936;2023-06-14T14:44:54;5.32;;;1.70;;
53835;SDS011;39737;43.334;21.936;2023-06-14T14:47:52;2.22;;;2.00;;
53835;SDS011;39737;43.334;21.936;2023-06-14T14:51:55;5.00;;;1.85;;
53835;SDS011;39737;43.334;21.936;2023-06-14T14:54:59;2.80;;;1.90;;
53835;SDS011;39737;43.334;21.936;2023-06-14T14:57:47;3.15;;;2.30;;
53835;SDS011;39737;43.334;21.936;2023-06-14T15:00:36;9.52;;;2.25;;
53835;SDS011;39737;43.334;21.936;2023-06-14T15:03:26;3.65;;;1.95;;
53835;SDS011;39737;43.334;21.936;2023-06-14T15:06:12;9.65;;;2.35;;
53835;SDS011;39737;43.334;21.936;2023-06-14T15:08:59;4.97;;;2.03;;
53835;SDS011;39737;43.334;21.936;2023-06-14T15:11:46;5.18;;;2.05;;
53835;SDS011;39737;43.334;21.936;2023-06-14T15:14:36;6.97;;;2.80;;
53835;SDS011;39737;43.334;21.936;2023-06-14T15:17:22;3.15;;;1.65;;
53835;SDS011;39737;43.334;21.936;2023-06-14T15:20:10;4.30;;;2.25;;
53835;SDS011;39737;43.334;21.936;2023-06-14T15:22:59;6.00;;;2.13;;
53835;SDS011;39737;43.334;21.936;2023-06-14T15:25:45;2.33;;;1.52;;
53835;SDS011;39737;43.334;21.936;2023-06-14T15:28:35;3.80;;;1.73;;
53835;SDS011;39737;43.334;21.936;2023-06-14T15:31:23;3.83;;;1.65;;
53835;SDS011;39737;43.334;21.936;2023-06-14T15:34:17;1.73;;;1.45;;
53835;SDS011;39737;43.334;21.936;2023-06-14T15:37:03;4.00;;;1.55;;
53835;SDS011;39737;43.334;21.936;2023-06-14T15:39:50;2.25;;;1.70;;
53835;SDS011;39737;43.334;21.936;2023-06-14T15:42:37;3.30;;;2.20;;
53835;SDS011;39737;43.334;21.936;2023-06-14T15:45:25;3.13;;;1.88;;
53835;SDS011;39737;43.334;21.936;2023-06-14T15:48:14;3.88;;;2.15;;
53835;SDS011;39737;43.334;21.936;2023-06-14T15:51:17;5.68;;;2.45;;
53835;SDS011;39737;43.334;21.936;2023-06-14T15:54:05;2.47;;;2.00;;
53835;SDS011;39737;43.334;21.936;2023-06-14T15:56:56;4.25;;;3.13;;
53835;SDS011;39737;43.334;21.936;2023-06-14T16:00:06;4.78;;;2.70;;
53835;SDS011;39737;43.334;21.936;2023-06-14T16:02:53;3.70;;;3.08;;
53835;SDS011;39737;43.334;21.936;2023-06-14T16:05:49;4.28;;;2.22;;
53835;SDS011;39737;43.334;21.936;2023-06-14T16:08:35;4.22;;;2.08;;
53835;SDS011;39737;43.334;21.936;2023-06-14T16:11:26;2.58;;;1.83;;
53835;SDS011;39737;43.334;21.936;2023-06-14T16:14:22;4.35;;;2.00;;
53835;SDS011;39737;43.334;21.936;2023-06-14T16:17:09;1.88;;;1.42;;
53835;SDS011;39737;43.334;21.936;2023-06-14T16:20:19;3.33;;;1.70;;
53835;SDS011;39737;43.334;21.936;2023-06-14T16:23:08;3.35;;;2.20;;
53835;SDS011;39737;43.334;21.936;2023-06-14T16:25:54;4.22;;;1.73;;
53835;SDS011;39737;43.334;21.936;2023-06-14T16:28:40;7.68;;;1.85;;
53835;SDS011;39737;43.334;21.936;2023-06-14T16:31:30;3.22;;;2.00;;
53835;SDS011;39737;43.334;21.936;2023-06-14T16:34:16;3.28;;;1.95;;
53835;SDS011;39737;43.334;21.936;2023-06-14T16:37:02;4.05;;;1.83;;
53835;SDS011;39737;43.334;21.936;2023-06-14T16:39:50;2.63;;;1.58;;
53835;SDS011;39737;43.334;21.936;2023-06-14T16:42:36;3.80;;;2.05;;
53835;SDS011;39737;43.334;21.936;2023-06-14T16:45:28;2.30;;;1.95;;
53835;SDS011;39737;43.334;21.936;2023-06-14T16:48:26;5.22;;;1.92;;
53835;SDS011;39737;43.334;21.936;2023-06-14T16:51:18;5.28;;;2.45;;
53835;SDS011;39737;43.334;21.936;2023-06-14T16:54:04;6.85;;;1.88;;
53835;SDS011;39737;43.334;21.936;2023-06-14T16:56:54;3.38;;;2.10;;
53835;SDS011;39737;43.334;21.936;2023-06-14T16:59:55;2.83;;;2.03;;
53835;SDS011;39737;43.334;21.936;2023-06-14T17:02:42;5.15;;;2.22;;
53835;SDS011;39737;43.334;21.936;2023-06-14T17:05:29;2.08;;;1.73;;
53835;SDS011;39737;43.334;21.936;2023-06-14T17:08:15;4.07;;;2.30;;
53835;SDS011;39737;43.334;21.936;2023-06-14T17:11:02;3.30;;;2.20;;
53835;SDS011;39737;43.334;21.936;2023-06-14T17:13:52;3.75;;;2.28;;
53835;SDS011;39737;43.334;21.936;2023-06-14T17:16:41;3.45;;;2.40;;
53835;SDS011;39737;43.334;21.936;2023-06-14T17:19:31;2.75;;;1.88;;
53835;SDS011;39737;43.334;21.936;2023-06-14T17:22:17;3.35;;;2.28;;
53835;SDS011;39737;43.334;21.936;2023-06-14T17:25:03;4.00;;;2.15;;
53835;SDS011;39737;43.334;21.936;2023-06-14T17:27:50;6.85;;;2.72;;
53835;SDS011;39737;43.334;21.936;2023-06-14T17:30:39;6.25;;;2.30;;
53835;SDS011;39737;43.334;21.936;2023-06-14T17:33:26;3.97;;;2.30;;
53835;SDS011;39737;43.334;21.936;2023-06-14T17:36:13;2.20;;;1.65;;
53835;SDS011;39737;43.334;21.936;2023-06-14T17:38:59;6.28;;;1.98;;